Maersk Tokyo — 9V5081 — position and weather

sailwx.info

Track history (hours):
 
Tides and Currents Weather Stations Pressure Air Temp Water Temp Dewpoint Dewpoint Depression Visibility Wind Speed Wind Dir Waves Ship Positions

Maersk Tokyo

Last reported at 2018-Feb-18 04:30 UTC. Time now 2018-Feb-18 04:50 UTC.
Position N 41°37' E 140°48'.

Length 183 m; draft 9.2 m.

Type: Ship. MMSI: 566833000.

Date/timePositionNaut miles runAvg speedWind from/ knotsBaromVisibWave heightAir tempDewpointWater temp
2018-Feb-18 04:30N 41°37' E 140°48'4 7.4
2018-Feb-18 04:00N 41°38' E 140°53'3 6.9
2018-Feb-18 03:30N 41°38' E 140°57'3 6.8
2018-Feb-18 03:00N 41°38' E 141°02'4 8.9
2018-Feb-18 02:30N 41°38' E 141°08'5 9.5
2018-Feb-18 02:00N 41°38' E 141°14'5 9.1
2018-Feb-18 01:30N 41°38' E 141°20'4 8.5
2018-Feb-18 00:59N 41°38' E 141°26'3 7.2
2018-Feb-18 00:30N 41°38' E 141°31'5 8.9
2018-Feb-17 23:59N 41°38' E 141°37'  
Track history (hours):
 
Tides and Currents Weather Stations Pressure Air Temp Water Temp Dewpoint Dewpoint Depression Visibility Wind Speed Wind Dir Waves Ship Positions

Maersk Tokyo

Last reported at 2018-Feb-18 04:30 UTC. Time now 2018-Feb-18 04:50 UTC.
Position N 41°37' E 140°48'.

Length 183 m; draft 9.2 m.

Type: Ship. MMSI: 566833000.

Date/timePositionNaut miles runAvg speedWind from/ knotsBaromVisibWave heightAir tempDewpointWater temp
2018-Feb-18 04:30N 41°37' E 140°48'4 7.4
2018-Feb-18 04:00N 41°38' E 140°53'3 6.9
2018-Feb-18 03:30N 41°38' E 140°57'3 6.8
2018-Feb-18 03:00N 41°38' E 141°02'4 8.9
2018-Feb-18 02:30N 41°38' E 141°08'5 9.5
2018-Feb-18 02:00N 41°38' E 141°14'5 9.1
2018-Feb-18 01:30N 41°38' E 141°20'4 8.5
2018-Feb-18 00:59N 41°38' E 141°26'3 7.2
2018-Feb-18 00:30N 41°38' E 141°31'5 8.9
2018-Feb-17 23:59N 41°38' E 141°37'  

Dump ship's entire track history